Time;durP1;ratioP1;P1;durP2;ratioP2;P2;SDS_P1;SDS_P2;PMS_P1;PMS_P2;Temp;Humidity;BMP_temperature;BMP_pressure;BME280_temperature;BME280_humidity;BME280_pressure;Samples;Min_cycle;Max_cycle;Signal;HPM_P1;HPM_P2
2023/07/10 00:01:03;;;;;;;2.90;2.63;;;24.70;53.70;24.20;96857.00;;;;4969483;28;20295;-79
2023/07/10 00:03:31;;;;;;;4.53;2.97;;;24.70;53.80;24.20;96852.00;;;;4964198;28;20267;-79
2023/07/10 00:06:00;;;;;;;2.30;2.10;;;24.70;53.80;24.10;96848.00;;;;4948410;28;20227;-79
2023/07/10 00:08:28;;;;;;;3.10;2.90;;;24.70;53.90;24.10;96851.00;;;;4973046;28;20209;-79
2023/07/10 00:10:59;;;;;;;2.63;2.43;;;24.60;53.90;24.10;96854.00;;;;4970637;28;20211;-79
2023/07/10 00:13:26;;;;;;;2.57;2.30;;;24.60;54.10;24.00;96853.00;;;;4969336;28;20203;-79
2023/07/10 00:15:55;;;;;;;2.50;2.20;;;24.50;54.00;24.00;96857.00;;;;4965432;28;20574;-79
2023/07/10 00:18:25;;;;;;;3.33;2.60;;;24.50;54.10;24.00;96850.00;;;;4961642;28;20203;-79
2023/07/10 00:20:52;;;;;;;2.90;2.60;;;24.40;54.10;23.90;96849.00;;;;4973755;28;20226;-79
2023/07/10 00:23:21;;;;;;;2.80;2.37;;;24.40;54.10;23.90;96849.00;;;;4960084;28;20906;-78
2023/07/10 00:25:48;;;;;;;2.20;2.00;;;24.40;54.20;23.80;96851.00;;;;4964062;28;20726;-78
2023/07/10 00:28:20;;;;;;;3.80;3.00;;;24.40;54.20;23.80;96851.00;;;;4958481;28;20669;-79
2023/07/10 00:30:50;;;;;;;2.50;2.30;;;24.30;54.40;23.70;96843.00;;;;4966377;28;20203;-79
2023/07/10 00:33:21;;;;;;;3.07;2.20;;;24.30;54.30;23.70;96844.00;;;;4967692;28;20285;-79
2023/07/10 00:35:48;;;;;;;3.10;2.60;;;24.20;54.50;23.70;96843.00;;;;4953182;28;20301;-79
2023/07/10 00:38:22;;;;;;;3.00;1.87;;;24.20;54.50;23.60;96848.00;;;;4963436;28;20573;-79
2023/07/10 00:40:49;;;;;;;3.07;2.80;;;24.20;54.70;23.60;96841.00;;;;4973920;28;20746;-79
2023/07/10 00:43:31;;;;;;;3.03;2.17;;;24.10;54.70;23.50;96842.00;;;;4964555;28;20238;-79
2023/07/10 00:46:14;;;;;;;2.90;2.30;;;24.10;55.20;23.50;96846.00;;;;4968835;28;20219;-79
2023/07/10 00:48:50;;;;;;;2.70;2.43;;;24.00;55.00;23.50;96840.00;;;;4966903;28;20242;-79
2023/07/10 00:51:24;;;;;;;2.63;2.10;;;24.00;55.10;23.40;96841.00;;;;4955749;28;20559;-79
2023/07/10 00:53:54;;;;;;;3.33;2.47;;;24.00;55.70;23.40;96842.00;;;;4965064;28;20205;-78
2023/07/10 00:56:23;;;;;;;3.03;2.73;;;24.00;55.20;23.40;96839.00;;;;4975305;28;20656;-79
2023/07/10 00:58:52;;;;;;;3.10;2.60;;;23.90;55.20;23.40;96830.00;;;;4962663;28;20214;-79
2023/07/10 01:01:24;;;;;;;3.73;2.77;;;23.90;55.40;23.30;96838.00;;;;4959244;28;20212;-78
2023/07/10 01:03:53;;;;;;;2.63;2.43;;;23.90;55.40;23.30;96835.00;;;;4961835;28;20204;-79
2023/07/10 01:06:26;;;;;;;2.60;2.40;;;23.80;55.50;23.30;96832.00;;;;4968421;28;20229;-79
2023/07/10 01:09:00;;;;;;;2.73;2.50;;;23.80;55.50;23.20;96829.00;;;;4964836;28;20201;-79
2023/07/10 01:11:28;;;;;;;3.50;2.90;;;23.80;55.70;23.20;96830.00;;;;4966031;28;20770;-79
2023/07/10 01:13:59;;;;;;;3.00;2.60;;;23.80;55.70;23.10;96829.00;;;;4967539;28;20205;-79
2023/07/10 01:16:30;;;;;;;2.70;2.50;;;23.70;55.90;23.10;96828.00;;;;4965521;28;20728;-79
2023/07/10 01:18:57;;;;;;;2.40;2.20;;;23.70;55.80;23.10;96826.00;;;;4970430;28;20221;-79
2023/07/10 01:21:30;;;;;;;2.87;2.40;;;23.70;55.90;23.10;96829.00;;;;4963727;28;20227;-79
2023/07/10 01:24:01;;;;;;;3.30;2.80;;;23.60;56.10;23.00;96824.00;;;;4967429;28;20288;-79
2023/07/10 01:26:30;;;;;;;3.03;2.40;;;23.60;56.00;23.00;96828.00;;;;4954628;28;20235;-78
2023/07/10 01:28:59;;;;;;;3.33;2.83;;;23.50;56.10;23.00;96825.00;;;;4960964;28;20203;-79
2023/07/10 01:31:28;;;;;;;2.93;2.60;;;23.50;56.20;23.00;96825.00;;;;4959415;28;20204;-78
2023/07/10 01:34:01;;;;;;;3.47;2.63;;;23.50;56.30;22.90;96831.00;;;;4963492;28;20211;-79
2023/07/10 01:36:37;;;;;;;3.20;2.40;;;23.50;56.50;22.90;96823.00;;;;4961139;28;20234;-79
2023/07/10 01:39:21;;;;;;;3.70;2.50;;;23.40;56.60;22.80;96825.00;;;;4956970;28;20265;-79
2023/07/10 01:41:48;;;;;;;3.77;2.73;;;23.40;56.60;22.80;96814.00;;;;4968273;28;20204;-79
2023/07/10 01:44:26;;;;;;;3.07;2.67;;;23.40;56.70;22.80;96813.00;;;;4965968;28;20199;-79
2023/07/10 01:46:55;;;;;;;3.60;3.30;;;23.40;57.10;22.80;96808.00;;;;4961106;28;20267;-79
2023/07/10 01:49:29;;;;;;;3.43;2.87;;;23.30;56.90;22.70;96803.00;;;;4969019;28;20210;-79
2023/07/10 01:52:02;;;;;;;3.10;2.80;;;23.30;57.30;22.70;96797.00;;;;4967298;28;20266;-79
2023/07/10 01:54:31;;;;;;;3.03;2.40;;;23.30;57.20;22.70;96786.00;;;;4968143;28;20210;-79
2023/07/10 01:56:58;;;;;;;4.73;2.90;;;23.30;57.20;22.60;96790.00;;;;4964288;28;20260;-77
2023/07/10 01:59:25;;;;;;;2.93;2.40;;;23.20;57.20;22.60;96792.00;;;;4968289;28;20206;-79
2023/07/10 02:01:56;;;;;;;3.50;2.87;;;23.20;57.30;22.60;96795.00;;;;4971039;28;20223;-79
2023/07/10 02:04:24;;;;;;;3.23;2.93;;;23.20;57.50;22.60;96799.00;;;;4975862;28;20208;-79
2023/07/10 02:06:54;;;;;;;2.73;2.53;;;23.20;57.50;22.60;96805.00;;;;4964995;28;20234;-78
2023/07/10 02:09:24;;;;;;;4.27;2.40;;;23.10;57.40;22.60;96808.00;;;;4958541;28;20216;-78
2023/07/10 02:11:53;;;;;;;2.90;2.70;;;23.20;57.60;22.60;96817.00;;;;4947256;28;20215;-78
2023/07/10 02:14:23;;;;;;;3.20;2.87;;;23.10;57.50;22.60;96822.00;;;;4960016;28;20293;-78
2023/07/10 02:16:51;;;;;;;3.17;2.87;;;23.10;57.60;22.50;96824.00;;;;4959040;28;20224;-78
2023/07/10 02:19:19;;;;;;;3.20;2.90;;;23.10;57.60;22.50;96835.00;;;;4945556;29;20200;-78
2023/07/10 02:21:46;;;;;;;2.80;2.57;;;23.10;57.60;22.50;96836.00;;;;4961093;28;20196;-78
2023/07/10 02:24:14;;;;;;;3.37;3.07;;;23.00;57.60;22.40;96843.00;;;;4973239;28;20562;-78
2023/07/10 02:26:43;;;;;;;3.23;2.43;;;23.00;57.70;22.40;96840.00;;;;4971033;28;20234;-78
2023/07/10 02:29:10;;;;;;;3.07;2.87;;;23.00;58.30;22.40;96851.00;;;;4964420;28;20208;-78
2023/07/10 02:31:37;;;;;;;2.60;2.40;;;23.00;57.80;22.40;96851.00;;;;4972717;28;20264;-79
2023/07/10 02:34:05;;;;;;;3.17;2.53;;;22.90;57.90;22.30;96861.00;;;;4974541;28;20556;-79
2023/07/10 02:36:34;;;;;;;3.23;2.80;;;22.90;58.00;22.30;96856.00;;;;4967949;28;20229;-79
2023/07/10 02:39:02;;;;;;;3.30;3.00;;;22.90;58.20;22.30;96865.00;;;;4964281;28;20192;-78
2023/07/10 02:41:30;;;;;;;2.73;2.53;;;22.90;58.20;22.30;96869.00;;;;4961213;28;20202;-78
2023/07/10 02:43:59;;;;;;;3.57;2.60;;;22.80;58.20;22.20;96870.00;;;;4971995;28;20586;-79
2023/07/10 02:46:26;;;;;;;4.20;3.20;;;22.80;58.40;22.20;96866.00;;;;4970206;28;20223;-79
2023/07/10 02:48:54;;;;;;;3.10;2.80;;;22.80;58.40;22.20;96871.00;;;;4964357;28;20193;-79
2023/07/10 02:51:21;;;;;;;3.47;2.77;;;22.80;58.50;22.20;96869.00;;;;4974059;28;20199;-79
2023/07/10 02:53:48;;;;;;;3.80;2.97;;;22.70;58.60;22.10;96864.00;;;;4975055;28;20270;-79
2023/07/10 02:56:16;;;;;;;4.07;3.10;;;22.70;58.70;22.10;96856.00;;;;4959544;28;20216;-78
2023/07/10 02:58:43;;;;;;;4.67;3.40;;;22.70;58.90;22.10;96856.00;;;;4963680;28;20237;-78
2023/07/10 03:01:11;;;;;;;4.53;3.07;;;22.70;59.00;22.10;96843.00;;;;4975867;28;20293;-78
2023/07/10 03:03:45;;;;;;;3.37;2.90;;;22.60;59.20;22.10;96836.00;;;;4972380;28;20199;-79
2023/07/10 03:06:12;;;;;;;3.43;3.07;;;22.60;59.20;22.10;96840.00;;;;4968631;28;20286;-79
2023/07/10 03:08:40;;;;;;;3.87;2.90;;;22.60;59.30;22.00;96836.00;;;;4968364;28;20206;-79
2023/07/10 03:11:15;;;;;;;4.30;3.00;;;22.60;59.30;22.00;96824.00;;;;4968800;28;20215;-78
2023/07/10 03:13:43;;;;;;;4.10;2.60;;;22.60;59.50;22.00;96822.00;;;;4964284;28;20191;-79
2023/07/10 03:16:16;;;;;;;6.43;3.07;;;22.60;59.50;22.00;96810.00;;;;4969362;28;20223;-78
2023/07/10 03:18:43;;;;;;;6.90;2.93;;;22.60;59.80;22.00;96807.00;;;;4965079;28;20234;-79
2023/07/10 03:21:11;;;;;;;2.90;2.63;;;22.60;59.60;22.00;96809.00;;;;4957272;28;20203;-79
2023/07/10 03:23:38;;;;;;;5.70;2.67;;;22.50;60.30;22.00;96813.00;;;;4961125;28;20212;-78
2023/07/10 03:26:06;;;;;;;6.23;3.00;;;22.50;59.90;21.90;96818.00;;;;4957466;28;20223;-79
2023/07/10 03:28:36;;;;;;;5.63;2.90;;;22.50;60.10;21.90;96810.00;;;;4963776;28;20558;-79
2023/07/10 03:31:04;;;;;;;3.90;3.20;;;22.50;60.20;21.90;96819.00;;;;4971460;28;20207;-78
2023/07/10 03:33:34;;;;;;;5.80;3.47;;;22.50;60.20;21.90;96820.00;;;;4962931;28;20226;-79
2023/07/10 03:36:03;;;;;;;6.17;3.43;;;22.40;60.40;21.90;96826.00;;;;4970819;28;20923;-79
2023/07/10 03:38:30;;;;;;;6.07;3.07;;;22.40;60.40;21.90;96829.00;;;;4959027;28;20312;-78
2023/07/10 03:41:00;;;;;;;3.90;3.27;;;22.40;60.50;21.80;96821.00;;;;4953900;28;20280;-78
2023/07/10 03:43:28;;;;;;;5.80;2.47;;;22.40;60.70;21.80;96816.00;;;;4961655;28;20211;-78
2023/07/10 03:45:57;;;;;;;5.63;2.60;;;22.40;60.90;21.80;96811.00;;;;4972544;28;20720;-79
2023/07/10 03:48:24;;;;;;;5.43;3.07;;;22.40;61.10;21.80;96827.00;;;;4957239;28;20262;-79
2023/07/10 03:50:53;;;;;;;7.00;3.23;;;22.40;61.20;21.80;96828.00;;;;4967615;28;20220;-79
2023/07/10 03:53:21;;;;;;;4.07;2.87;;;22.30;61.50;21.80;96833.00;;;;4971299;28;20199;-79
2023/07/10 03:55:50;;;;;;;6.07;3.00;;;22.30;61.60;21.80;96836.00;;;;4975804;28;20692;-78
2023/07/10 03:58:22;;;;;;;3.93;2.63;;;22.30;61.60;21.70;96839.00;;;;4972815;28;20307;-78
2023/07/10 04:00:51;;;;;;;5.50;2.70;;;22.30;61.80;21.70;96831.00;;;;4968469;28;20217;-78
2023/07/10 04:03:22;;;;;;;4.03;2.80;;;22.30;61.60;21.70;96828.00;;;;4974461;28;20263;-79
2023/07/10 04:05:54;;;;;;;3.60;2.70;;;22.30;61.90;21.80;96827.00;;;;4974069;28;20960;-78
2023/07/10 04:08:22;;;;;;;4.20;2.90;;;22.30;62.00;21.80;96824.00;;;;4965457;28;20204;-78
2023/07/10 04:10:51;;;;;;;5.80;3.50;;;22.30;62.00;21.80;96820.00;;;;4965549;28;20209;-78
2023/07/10 04:13:18;;;;;;;4.67;3.03;;;22.30;62.30;21.80;96824.00;;;;4968975;28;20204;-80
2023/07/10 04:16:01;;;;;;;3.20;2.90;;;22.40;62.50;21.80;96823.00;;;;4973543;28;20310;-81
2023/07/10 04:18:30;;;;;;;4.43;2.83;;;22.40;62.90;21.90;96826.00;;;;4973737;28;20665;-80
2023/07/10 04:21:03;;;;;;;6.80;3.20;;;22.40;62.50;22.00;96835.00;;;;4964025;28;20203;-82
2023/07/10 04:23:31;;;;;;;4.67;2.93;;;22.50;62.80;22.00;96841.00;;;;4979075;28;20223;-82
2023/07/10 04:25:59;;;;;;;3.77;2.63;;;22.50;62.60;22.10;96840.00;;;;4972666;28;20222;-82
2023/07/10 04:28:28;;;;;;;4.97;3.03;;;22.60;62.80;22.10;96837.00;;;;4988057;28;20199;-82
2023/07/10 04:30:55;;;;;;;3.40;2.80;;;22.60;62.90;22.20;96842.00;;;;4981852;28;20287;-82
2023/07/10 04:33:23;;;;;;;3.30;3.00;;;22.60;62.90;22.30;96833.00;;;;4981064;28;20686;-81
2023/07/10 04:35:55;;;;;;;3.27;2.80;;;22.70;63.10;22.30;96835.00;;;;4983228;28;20309;-81
2023/07/10 04:38:27;;;;;;;3.80;3.00;;;22.70;63.20;22.40;96840.00;;;;4972759;28;20242;-82
2023/07/10 04:40:57;;;;;;;4.13;2.80;;;22.80;63.20;22.40;96844.00;;;;4975228;28;20191;-81
2023/07/10 04:43:27;;;;;;;4.97;3.60;;;22.90;63.00;22.50;96833.00;;;;4974607;28;20197;-83
2023/07/10 04:45:56;;;;;;;3.43;3.00;;;22.90;63.10;22.60;96832.00;;;;4977497;28;20240;-82
2023/07/10 04:48:24;;;;;;;3.27;2.93;;;23.00;63.10;22.60;96830.00;;;;4967946;28;20232;-83
2023/07/10 04:50:54;;;;;;;3.50;3.20;;;23.00;63.10;22.70;96841.00;;;;4972548;28;20233;-82
2023/07/10 04:53:24;;;;;;;4.23;3.00;;;23.10;63.20;22.70;96846.00;;;;4966791;28;20762;-81
2023/07/10 04:55:54;;;;;;;3.60;2.80;;;23.10;63.00;22.80;96859.00;;;;4973782;28;20219;-81
2023/07/10 04:58:25;;;;;;;3.60;2.73;;;23.20;63.00;22.80;96856.00;;;;4959254;28;20587;-82
2023/07/10 05:00:57;;;;;;;3.43;3.13;;;23.30;63.20;22.90;96857.00;;;;4966514;28;20209;-81
2023/07/10 05:03:25;;;;;;;3.90;3.27;;;23.30;63.00;23.00;96864.00;;;;4962619;28;20206;-81
2023/07/10 05:05:54;;;;;;;3.13;2.83;;;23.30;62.70;23.00;96862.00;;;;4972128;28;20221;-81
2023/07/10 05:08:22;;;;;;;3.90;2.90;;;23.40;62.80;23.10;96863.00;;;;4968114;28;20288;-81
2023/07/10 05:10:51;;;;;;;4.23;3.40;;;23.50;62.70;23.20;96861.00;;;;4966191;28;20222;-81
2023/07/10 05:13:20;;;;;;;3.70;3.33;;;23.50;62.50;23.30;96847.00;;;;4958559;28;20627;-81
2023/07/10 05:15:48;;;;;;;3.13;2.83;;;23.60;62.10;23.30;96844.00;;;;4973609;28;20314;-82
2023/07/10 05:18:16;;;;;;;6.00;3.03;;;23.60;62.10;23.40;96841.00;;;;4971769;28;20241;-81
2023/07/10 05:20:46;;;;;;;3.00;2.60;;;23.70;61.90;23.50;96845.00;;;;4968256;28;20561;-82
2023/07/10 05:23:15;;;;;;;4.40;3.20;;;23.80;62.10;23.50;96858.00;;;;4971890;28;20573;-83
2023/07/10 05:25:42;;;;;;;3.23;2.90;;;23.90;62.10;23.60;96859.00;;;;4964982;28;20850;-81
2023/07/10 05:28:12;;;;;;;3.50;2.73;;;23.90;61.60;23.70;96865.00;;;;4969654;28;20234;-80
2023/07/10 05:30:39;;;;;;;2.93;2.73;;;24.00;61.20;23.70;96861.00;;;;4968522;28;20234;-82
2023/07/10 05:33:06;;;;;;;3.57;2.80;;;24.00;60.90;23.80;96862.00;;;;4966066;28;20201;-82
2023/07/10 05:35:34;;;;;;;3.37;2.83;;;24.10;61.00;23.80;96868.00;;;;4966135;28;20734;-82
2023/07/10 05:38:01;;;;;;;2.70;2.50;;;24.20;60.70;23.90;96871.00;;;;4952722;28;20222;-80
2023/07/10 05:40:29;;;;;;;3.20;2.90;;;24.20;61.00;24.00;96870.00;;;;4969903;28;20295;-82
2023/07/10 05:42:56;;;;;;;6.23;2.90;;;24.30;60.90;24.10;96865.00;;;;4976148;28;20755;-82
2023/07/10 05:45:26;;;;;;;3.20;2.43;;;24.40;60.80;24.10;96865.00;;;;4975666;28;20205;-83
2023/07/10 05:47:53;;;;;;;2.90;2.60;;;24.40;61.00;24.20;96868.00;;;;4970164;28;20263;-83
2023/07/10 05:50:20;;;;;;;3.27;2.90;;;24.50;60.80;24.30;96867.00;;;;4963447;28;20737;-82
2023/07/10 05:52:47;;;;;;;2.53;2.33;;;24.60;60.60;24.40;96871.00;;;;4974414;28;20234;-82
2023/07/10 05:55:15;;;;;;;2.77;2.47;;;24.70;60.50;24.50;96871.00;;;;4962781;28;20226;-82
2023/07/10 05:57:42;;;;;;;3.77;2.27;;;24.80;60.70;24.60;96877.00;;;;4970145;28;20203;-82
2023/07/10 06:00:11;;;;;;;2.97;2.30;;;24.80;60.20;24.60;96881.00;;;;4972471;28;20295;-82
2023/07/10 06:02:39;;;;;;;4.00;2.47;;;24.90;60.00;24.70;96879.00;;;;4971645;28;20294;-82
2023/07/10 06:05:09;;;;;;;2.73;2.53;;;25.00;59.90;24.80;96888.00;;;;4962552;28;20286;-82
2023/07/10 06:07:36;;;;;;;2.83;2.63;;;25.10;59.90;24.90;96892.00;;;;4943621;28;20206;-81
2023/07/10 06:10:04;;;;;;;3.47;2.53;;;25.10;59.70;24.90;96891.00;;;;4969517;28;20239;-84
2023/07/10 06:12:32;;;;;;;2.70;2.40;;;25.20;59.60;25.00;96893.00;;;;4966323;28;20230;-81
2023/07/10 06:14:59;;;;;;;3.00;2.47;;;25.20;59.60;25.10;96897.00;;;;4961655;28;20286;-81
2023/07/10 06:17:26;;;;;;;2.80;2.60;;;25.40;59.30;25.10;96904.00;;;;4964707;28;20222;-81
2023/07/10 06:19:55;;;;;;;3.83;2.40;;;25.40;59.00;25.20;96908.00;;;;4966063;28;20295;-81
2023/07/10 06:22:22;;;;;;;3.13;2.83;;;25.40;58.60;25.20;96905.00;;;;4973356;28;20199;-79
2023/07/10 06:24:49;;;;;;;2.90;2.60;;;25.50;58.50;25.30;96913.00;;;;4971571;28;20206;-82
2023/07/10 06:27:17;;;;;;;3.30;2.70;;;25.60;58.20;25.40;96912.00;;;;4961103;28;20775;-82
2023/07/10 06:29:44;;;;;;;3.00;2.67;;;25.60;58.10;25.40;96910.00;;;;4958459;28;20437;-79
2023/07/10 06:32:11;;;;;;;4.83;2.83;;;25.70;57.90;25.50;96920.00;;;;4966628;28;20742;-80
2023/07/10 06:34:39;;;;;;;3.93;2.97;;;25.80;58.50;25.60;96922.00;;;;4972602;28;20198;-81
2023/07/10 06:37:07;;;;;;;2.67;2.47;;;25.80;58.10;25.60;96917.00;;;;4964131;28;20225;-85
2023/07/10 06:39:35;;;;;;;3.50;2.80;;;25.90;58.10;25.80;96910.00;;;;4974746;28;20223;-82
2023/07/10 06:42:02;;;;;;;2.77;2.47;;;26.00;58.60;25.80;96911.00;;;;4956655;28;20684;-79
2023/07/10 06:44:30;;;;;;;3.23;2.47;;;26.00;58.10;25.90;96910.00;;;;4974449;28;20206;-81
2023/07/10 06:46:58;;;;;;;3.90;2.40;;;26.10;58.00;26.00;96921.00;;;;4977581;28;20639;-80
2023/07/10 06:49:26;;;;;;;2.70;2.50;;;26.20;58.20;26.10;96917.00;;;;4970425;28;20238;-81
2023/07/10 06:51:54;;;;;;;3.67;2.70;;;26.30;58.20;26.20;96913.00;;;;4962413;28;20199;-81
2023/07/10 06:54:22;;;;;;;3.10;2.50;;;26.40;58.60;26.30;96910.00;;;;4968751;28;20291;-83
2023/07/10 06:56:50;;;;;;;4.30;3.03;;;26.50;58.70;26.50;96917.00;;;;4971126;28;20222;-85
2023/07/10 06:59:21;;;;;;;2.70;2.50;;;26.60;58.50;26.60;96910.00;;;;4969563;28;20228;-83
2023/07/10 07:01:49;;;;;;;4.93;3.03;;;26.70;58.60;26.70;96919.00;;;;4968801;28;20250;-84
2023/07/10 07:04:16;;;;;;;2.93;2.73;;;26.80;58.60;26.80;96925.00;;;;4968722;28;20192;-84
2023/07/10 07:06:44;;;;;;;2.72;2.50;;;26.90;58.60;26.90;96927.00;;;;4970223;28;20224;-84
2023/07/10 07:09:13;;;;;;;3.03;2.57;;;27.00;58.20;27.00;96922.00;;;;4975301;28;20275;-82
2023/07/10 07:11:41;;;;;;;10.50;3.23;;;27.10;58.10;27.10;96919.00;;;;4976798;28;20242;-83
2023/07/10 07:14:09;;;;;;;3.60;2.72;;;27.30;58.20;27.20;96928.00;;;;4977602;28;20291;-83
2023/07/10 07:16:36;;;;;;;2.92;2.58;;;27.30;58.00;27.20;96924.00;;;;4975134;28;20219;-84
2023/07/10 07:19:04;;;;;;;3.75;2.83;;;27.40;57.70;27.30;96924.00;;;;4968359;28;20245;-81
2023/07/10 07:21:31;;;;;;;2.70;2.50;;;27.50;57.70;27.30;96936.00;;;;4969288;28;20203;-84
2023/07/10 07:23:58;;;;;;;3.45;2.58;;;27.50;57.50;27.40;96941.00;;;;4973699;28;20205;-81
2023/07/10 07:26:26;;;;;;;2.80;2.40;;;27.60;57.60;27.50;96949.00;;;;4962775;28;20223;-83
2023/07/10 07:28:56;;;;;;;2.97;2.67;;;27.60;57.60;27.50;96945.00;;;;4961802;28;20567;-82
2023/07/10 07:31:23;;;;;;;4.05;2.85;;;27.70;57.40;27.60;96942.00;;;;4963577;28;20657;-82
2023/07/10 07:33:52;;;;;;;5.63;2.45;;;27.80;56.80;27.70;96941.00;;;;4969563;28;20196;-81
2023/07/10 07:36:19;;;;;;;2.30;2.10;;;27.80;56.70;27.70;96940.00;;;;4964290;28;20310;-82
2023/07/10 07:38:46;;;;;;;2.80;2.60;;;27.90;56.30;27.80;96954.00;;;;4953764;28;20596;-81
2023/07/10 07:41:14;;;;;;;4.47;2.35;;;28.00;55.90;27.90;96946.00;;;;4965098;28;20200;-81
2023/07/10 07:43:42;;;;;;;3.55;2.28;;;28.00;55.40;27.90;96955.00;;;;4971588;28;20278;-83
2023/07/10 07:46:11;;;;;;;2.42;2.05;;;28.10;55.00;27.90;96971.00;;;;4965981;28;20599;-83
2023/07/10 07:48:38;;;;;;;2.72;2.47;;;28.10;54.20;28.00;96973.00;;;;4966467;28;20656;-84
2023/07/10 07:51:08;;;;;;;3.47;2.42;;;28.10;54.40;28.00;96955.00;;;;4968294;28;20740;-81
2023/07/10 07:53:40;;;;;;;4.53;2.05;;;28.20;54.40;28.10;96939.00;;;;4960603;28;20706;-81
2023/07/10 07:56:07;;;;;;;5.22;2.58;;;28.20;54.10;28.10;96960.00;;;;4964406;28;20232;-83
2023/07/10 07:58:35;;;;;;;2.60;2.40;;;28.20;54.00;28.20;96987.00;;;;4970774;28;20587;-83
2023/07/10 08:01:04;;;;;;;5.55;2.58;;;28.30;54.30;28.20;97007.00;;;;4967179;28;20931;-83
2023/07/10 08:03:34;;;;;;;3.08;2.38;;;28.30;54.10;28.30;96992.00;;;;4975190;28;20298;-83
2023/07/10 08:06:02;;;;;;;3.13;2.40;;;28.40;53.90;28.30;97013.00;;;;4962561;28;20212;-82
2023/07/10 08:08:30;;;;;;;3.35;2.40;;;28.50;53.50;28.30;97041.00;;;;4963430;28;20640;-81
2023/07/10 08:10:57;;;;;;;2.60;2.40;;;28.50;53.20;28.30;97024.00;;;;4955143;28;20583;-84
2023/07/10 08:13:24;;;;;;;2.30;2.10;;;28.50;53.00;28.30;97026.00;;;;4971181;28;20199;-80
2023/07/10 08:15:51;;;;;;;3.47;2.40;;;28.50;52.90;28.30;97018.00;;;;4976467;28;20219;-85
2023/07/10 08:18:19;;;;;;;2.80;2.50;;;28.50;52.50;28.30;97029.00;;;;4969725;28;20267;-83
2023/07/10 08:20:47;;;;;;;4.63;2.35;;;28.50;52.70;28.30;97037.00;;;;4967993;28;20195;-81
2023/07/10 08:23:15;;;;;;;2.40;2.20;;;28.50;52.80;28.30;97022.00;;;;4952805;28;20199;-82
2023/07/10 08:25:42;;;;;;;2.80;2.53;;;28.50;52.90;28.30;97009.00;;;;4967236;28;20226;-84
2023/07/10 08:28:10;;;;;;;4.30;2.47;;;28.50;53.70;28.30;97002.00;;;;4951567;28;20235;-84
2023/07/10 08:30:37;;;;;;;3.17;2.53;;;28.50;54.30;28.20;96993.00;;;;4973560;28;20215;-81
2023/07/10 08:33:04;;;;;;;3.25;2.40;;;28.50;54.50;28.20;97005.00;;;;4968310;28;20201;-81
2023/07/10 08:35:32;;;;;;;2.60;2.22;;;28.50;55.20;28.20;97025.00;;;;4970502;28;20216;-81
2023/07/10 08:38:01;;;;;;;2.70;2.33;;;28.50;55.50;28.20;97023.00;;;;4969395;28;20192;-82
2023/07/10 08:40:33;;;;;;;4.25;2.45;;;28.40;55.80;28.10;97017.00;;;;4965735;28;20760;-82
2023/07/10 08:43:14;;;;;;;2.58;2.35;;;28.40;55.80;28.10;97019.00;;;;4974127;28;20290;-82
2023/07/10 08:45:42;;;;;;;3.67;2.35;;;28.40;55.80;28.10;97033.00;;;;4971607;28;20250;-82
2023/07/10 08:48:30;;;;;;;2.55;2.35;;;28.40;55.20;28.10;97027.00;;;;4970927;28;20231;-83
2023/07/10 08:51:09;;;;;;;3.50;2.30;;;28.40;55.40;28.10;97036.00;;;;4977049;28;20221;-84
2023/07/10 08:53:43;;;;;;;2.92;2.70;;;28.40;55.30;28.10;97052.00;;;;4953111;28;20286;-83
2023/07/10 08:56:27;;;;;;;2.40;2.20;;;28.40;55.20;28.10;97089.00;;;;4968642;28;20227;-81
2023/07/10 08:59:04;;;;;;;3.70;2.67;;;28.40;54.90;28.10;97091.00;;;;4971716;28;20233;-83
2023/07/10 09:01:39;;;;;;;3.63;2.65;;;28.30;54.30;28.00;97083.00;;;;4969597;28;20676;-82
2023/07/10 09:04:13;;;;;;;3.83;2.42;;;28.30;54.40;28.00;97094.00;;;;4968229;28;20254;-83
2023/07/10 09:06:48;;;;;;;3.33;2.85;;;28.30;55.00;28.00;97101.00;;;;4972026;28;20229;-84
2023/07/10 09:09:48;;;;;;;3.35;2.58;;;28.30;55.20;28.00;97100.00;;;;4966484;28;20214;-84
2023/07/10 09:12:23;;;;;;;2.92;2.67;;;28.30;55.00;28.00;97107.00;;;;4966520;28;20199;-83
2023/07/10 09:14:56;;;;;;;2.40;2.20;;;28.20;55.20;27.90;97103.00;;;;4965867;28;20214;-82
2023/07/10 09:17:38;;;;;;;3.70;2.25;;;28.20;55.40;27.90;97106.00;;;;4966784;28;20220;-84
2023/07/10 09:20:10;;;;;;;3.03;2.72;;;28.20;55.50;27.90;97101.00;;;;4966021;28;20335;-84
2023/07/10 09:22:52;;;;;;;3.15;2.83;;;28.20;55.80;27.90;97100.00;;;;4968132;28;20258;-84
2023/07/10 09:25:22;;;;;;;4.22;3.10;;;28.20;55.80;27.90;97089.00;;;;4973673;28;20255;-83
2023/07/10 09:27:49;;;;;;;3.22;2.92;;;28.20;55.80;28.00;97086.00;;;;4967847;28;20282;-84
2023/07/10 09:30:36;;;;;;;3.03;2.72;;;28.20;55.70;28.00;97073.00;;;;4976620;28;20215;-85
2023/07/10 09:33:08;;;;;;;3.97;2.70;;;28.20;55.40;28.00;97072.00;;;;4978210;28;20234;-84
2023/07/10 09:35:37;;;;;;;3.25;2.40;;;28.20;55.50;28.00;97070.00;;;;4983115;28;20250;-84
2023/07/10 09:38:05;;;;;;;3.03;2.83;;;28.20;55.40;28.10;97067.00;;;;4981877;28;20215;-83
2023/07/10 09:40:41;;;;;;;4.60;2.58;;;28.30;55.50;28.10;97070.00;;;;4956566;28;20727;-82
2023/07/10 09:43:15;;;;;;;3.13;2.55;;;28.30;55.80;28.20;97059.00;;;;4960641;28;20195;-83
2023/07/10 09:45:47;;;;;;;4.50;2.38;;;28.30;55.50;28.20;97051.00;;;;4963718;28;20235;-83
2023/07/10 09:48:21;;;;;;;2.97;2.33;;;28.40;56.10;28.30;97043.00;;;;4965037;28;20218;-84
2023/07/10 09:50:52;;;;;;;3.70;2.25;;;28.40;55.60;28.30;97043.00;;;;4977590;28;20237;-84
2023/07/10 09:53:33;;;;;;;3.03;2.67;;;28.40;55.70;28.30;97031.00;;;;4963316;28;20204;-84
2023/07/10 09:56:02;;;;;;;3.72;2.53;;;28.50;55.90;28.40;97039.00;;;;4964584;28;20302;-84
2023/07/10 09:58:30;;;;;;;4.22;2.55;;;28.50;55.80;28.50;97037.00;;;;4965631;28;20202;-83
2023/07/10 10:01:02;;;;;;;3.90;2.63;;;28.60;55.70;28.50;97033.00;;;;4960710;28;20227;-83
2023/07/10 10:03:38;;;;;;;4.57;2.72;;;28.60;55.40;28.50;97036.00;;;;4963594;28;20639;-84
2023/07/10 10:06:19;;;;;;;4.50;2.45;;;28.70;55.40;28.50;97042.00;;;;4944145;28;20220;-84
2023/07/10 10:08:49;;;;;;;2.97;2.67;;;28.70;55.30;28.60;97048.00;;;;4963438;28;20732;-83
2023/07/10 10:11:19;;;;;;;4.13;2.72;;;28.80;55.70;28.60;97051.00;;;;4965800;28;20303;-84
2023/07/10 10:13:59;;;;;;;3.15;2.08;;;28.80;55.70;28.70;97055.00;;;;4967100;28;20203;-83
2023/07/10 10:16:37;;;;;;;3.25;2.35;;;28.80;56.20;28.70;97055.00;;;;4965956;28;20282;-84
2023/07/10 10:19:15;;;;;;;3.50;2.28;;;28.90;55.60;28.80;97057.00;;;;4967171;28;20462;-83
2023/07/10 10:21:43;;;;;;;2.47;2.15;;;29.00;55.20;28.90;97054.00;;;;4964430;28;20199;-83
2023/07/10 10:24:13;;;;;;;2.30;2.10;;;29.00;55.10;28.90;97049.00;;;;4968200;28;20647;-83
2023/07/10 10:27:09;;;;;;;2.35;2.15;;;29.10;55.60;29.00;97047.00;;;;4961710;28;20215;-83
2023/07/10 10:30:32;;;;;;;3.40;2.22;;;29.10;55.20;29.10;97049.00;;;;4963579;28;20219;-83
2023/07/10 10:33:18;;;;;;;2.30;2.10;;;29.30;55.60;29.30;97042.00;;;;4962632;28;20203;-83
2023/07/10 10:35:57;;;;;;;2.92;2.28;;;29.40;55.40;29.50;97038.00;;;;4963634;28;20215;-83
2023/07/10 10:38:47;;;;;;;5.53;2.13;;;29.60;55.10;29.70;97036.00;;;;4949725;28;20215;-83
2023/07/10 10:41:52;;;;;;;2.92;1.95;;;29.80;55.20;29.90;97031.00;;;;4963272;28;20317;-83
2023/07/10 10:44:45;;;;;;;2.42;1.58;;;30.00;54.40;30.20;97034.00;;;;4964605;28;20573;-83
2023/07/10 10:47:35;;;;;;;3.00;2.20;;;30.30;54.90;30.50;97021.00;;;;4963998;28;20592;-83
2023/07/10 10:50:37;;;;;;;2.20;1.73;;;30.60;54.10;30.80;97022.00;;;;4963760;28;20286;-83
2023/07/10 10:53:35;;;;;;;3.67;1.70;;;30.90;53.30;31.10;97028.00;;;;4960578;28;20203;-83
2023/07/10 10:56:19;;;;;;;3.65;2.08;;;31.20;53.40;31.40;97025.00;;;;4966601;28;20305;-83
2023/07/10 10:59:10;;;;;;;3.22;1.45;;;31.50;52.90;31.60;97019.00;;;;4957769;28;20578;-83
2023/07/10 11:01:45;;;;;;;4.15;1.85;;;31.80;52.20;31.90;97027.00;;;;4960017;28;20200;-82
2023/07/10 11:04:24;;;;;;;4.35;1.85;;;32.00;51.30;32.00;97031.00;;;;4970896;28;20258;-83
2023/07/10 11:06:58;;;;;;;2.33;1.67;;;32.20;50.90;32.20;97026.00;;;;4971536;28;20223;-86
2023/07/10 11:09:33;;;;;;;3.92;1.58;;;32.30;50.20;32.30;97025.00;;;;4955664;28;20199;-86
2023/07/10 11:12:06;;;;;;;2.08;1.60;;;32.40;49.70;32.40;97024.00;;;;4966861;28;20660;-86